Hlavní strana
METAR-TAF:

METAR-TAF

Letiště :

Capital City Airport

Frankfort, Kentucky, Spojené státy americké

zeměpisná šířka: 38-11-05N, zeměpisná délka: 084-54-12W, výška: 245 m

Aktuální stav počasí

Zpráva byla vytvořena před 21 hodinami a 42 minutami, v 23:53 UTC
Jižní vítr 6 kt
Teplota 28°C
Vlhkost vzduchu 70%
Tlak 1012 hPa
Viditelnost: 16.1 km
Oblačno až skoro zataženo ve výšce 4400 ft

METAR: KFFT 202353Z AUTO 19006KT 10SM BKN044 28/22 A2989 RMK AO2 SLP114 60000 T02780217 10300 20272 53003

Čas: 17:35 (21:35 UTC)


TAF: chybějící

Stav a předpovědi počasí z více než 4 000 letišť (zprávy METAR a TAF).

Červené a žluté tečky na mapě představují dostupné meteorologické stanice.

Když kurzor umístíte na tečku, zobrazí se název stanice.

Pak kliknutím zobrazíte stav a předpověď počasí.

Chcete-li změnit mapu, kliknutím na zelené tlačítko se znaménkem +mapu přiblížíte, kliknutím na zelené tlačítko se znaménkem – mapu oddálíte a kliknutím na zelené šipky přejdete na sousední mapy.


METAR-TAF: